Time;durP1;ratioP1;P1;durP2;ratioP2;P2;SDS_P1;SDS_P2;PMS_P1;PMS_P2;Temp;Humidity;BMP_temperature;BMP_pressure;BME280_temperature;BME280_humidity;BME280_pressure;Samples;Min_cycle;Max_cycle;Signal;HPM_P1;HPM_P2
2023/07/09 00:02:13;;;;;;;2.65;1.20;;;24.70;99.90;;;;;;5145220;27;20096;-67
2023/07/09 00:04:39;;;;;;;3.72;0.70;;;24.70;99.90;;;;;;5150951;27;20041;-66
2023/07/09 00:07:11;;;;;;;0.43;0.32;;;24.60;99.90;;;;;;5140620;27;20394;-67
2023/07/09 00:09:37;;;;;;;0.15;0.15;;;24.60;99.90;;;;;;5143391;27;20034;-67
2023/07/09 00:12:02;;;;;;;8.55;0.60;;;24.60;99.90;;;;;;5142826;27;20096;-67
2023/07/09 00:14:28;;;;;;;0.60;0.40;;;24.50;99.90;;;;;;5148080;27;20043;-66
2023/07/09 00:16:54;;;;;;;0.25;0.20;;;24.50;99.90;;;;;;5127155;27;20045;-66
2023/07/09 00:19:23;;;;;;;0.40;0.30;;;24.50;99.90;;;;;;5149274;27;20049;-66
2023/07/09 00:21:53;;;;;;;0.10;0.10;;;24.40;99.90;;;;;;5136195;27;20114;-66
2023/07/09 00:24:19;;;;;;;12.15;0.65;;;24.40;99.90;;;;;;5147097;27;20129;-66
2023/07/09 00:26:47;;;;;;;0.47;0.05;;;24.40;99.90;;;;;;5145457;27;20512;-66
2023/07/09 00:29:13;;;;;;;0.20;0.20;;;24.40;99.90;;;;;;5149601;27;20084;-66
2023/07/09 00:31:41;;;;;;;0.68;0.35;;;24.30;99.90;;;;;;5141506;27;20453;-66
2023/07/09 00:34:13;;;;;;;0.13;0.13;;;24.30;99.90;;;;;;5147562;27;20496;-67
2023/07/09 00:36:40;;;;;;;8.40;2.17;;;24.30;99.90;;;;;;5144335;27;20046;-67
2023/07/09 00:39:18;;;;;;;1.98;0.70;;;24.30;99.90;;;;;;5136717;27;20039;-67
2023/07/09 00:41:46;;;;;;;0.43;0.43;;;24.30;99.90;;;;;;5139892;27;20092;-66
2023/07/09 00:44:29;;;;;;;0.80;0.80;;;24.20;99.90;;;;;;5121177;27;20490;-67
2023/07/09 00:47:03;;;;;;;0.30;0.17;;;24.20;99.90;;;;;;5148396;27;20046;-66
2023/07/09 00:49:46;;;;;;;0.47;0.25;;;24.20;99.90;;;;;;5140486;27;20034;-66
2023/07/09 00:52:29;;;;;;;0.13;0.13;;;24.10;99.90;;;;;;5127288;27;20047;-66
2023/07/09 00:54:58;;;;;;;1.55;1.17;;;24.10;99.90;;;;;;5147146;27;20088;-66
2023/07/09 00:57:26;;;;;;;1.98;0.52;;;24.10;99.90;;;;;;5140048;27;20043;-67
2023/07/09 00:59:59;;;;;;;0.28;0.28;;;24.10;99.90;;;;;;5135219;27;20034;-67
2023/07/09 01:02:25;;;;;;;0.20;0.20;;;24.10;99.90;;;;;;5138935;27;20178;-66
2023/07/09 01:05:00;;;;;;;1.77;1.65;;;24.00;99.90;;;;;;5126535;27;20046;-67
2023/07/09 01:07:27;;;;;;;0.57;0.52;;;24.00;99.90;;;;;;5137998;27;20043;-67
2023/07/09 01:09:53;;;;;;;0.00;0.00;;;24.00;99.90;;;;;;5144879;27;20045;-66
2023/07/09 01:12:20;;;;;;;0.10;0.10;;;23.90;99.90;;;;;;5139368;27;20465;-66
2023/07/09 01:14:51;;;;;;;0.43;0.43;;;23.90;99.90;;;;;;5139251;27;20035;-67
2023/07/09 01:17:17;;;;;;;0.00;0.00;;;23.90;99.90;;;;;;5144090;27;20054;-67
2023/07/09 01:19:48;;;;;;;2.92;0.93;;;23.90;99.90;;;;;;5149194;27;20042;-67
2023/07/09 01:22:18;;;;;;;0.73;0.73;;;23.90;99.90;;;;;;5144799;27;20102;-67
2023/07/09 01:25:07;;;;;;;1.27;1.10;;;23.80;99.90;;;;;;5122573;27;20051;-66
2023/07/09 01:27:33;;;;;;;0.10;0.10;;;23.90;99.90;;;;;;5146422;27;20054;-66
2023/07/09 01:30:00;;;;;;;0.43;0.43;;;23.80;99.90;;;;;;5139948;27;20049;-66
2023/07/09 01:32:26;;;;;;;0.28;0.28;;;23.70;99.90;;;;;;5130162;27;20442;-67
2023/07/09 01:34:54;;;;;;;0.47;0.30;;;23.70;99.90;;;;;;5145922;27;20046;-66
2023/07/09 01:37:24;;;;;;;0.05;0.05;;;23.70;99.90;;;;;;5142662;27;20047;-67
2023/07/09 01:39:51;;;;;;;0.43;0.43;;;23.70;99.90;;;;;;5147232;27;20087;-67
2023/07/09 01:42:21;;;;;;;0.10;0.10;;;23.70;99.90;;;;;;5141656;27;20042;-67
2023/07/09 01:44:47;;;;;;;3.20;0.45;;;23.70;99.90;;;;;;5141608;27;20038;-67
2023/07/09 01:47:13;;;;;;;7.05;0.88;;;23.60;99.90;;;;;;5144428;27;20039;-66
2023/07/09 01:49:39;;;;;;;0.73;0.38;;;23.60;99.90;;;;;;5146592;27;20050;-66
2023/07/09 01:52:10;;;;;;;0.22;0.22;;;23.60;99.90;;;;;;5140133;27;20403;-66
2023/07/09 01:54:38;;;;;;;0.32;0.32;;;23.60;99.90;;;;;;5152578;27;20046;-66
2023/07/09 01:57:25;;;;;;;3.03;1.17;;;23.60;99.90;;;;;;5146693;27;20047;-67
2023/07/09 01:59:54;;;;;;;0.35;0.35;;;23.50;99.90;;;;;;5141180;27;20039;-67
2023/07/09 02:02:20;;;;;;;0.30;0.20;;;23.50;99.90;;;;;;5150739;27;20087;-66
2023/07/09 02:04:47;;;;;;;0.90;0.40;;;23.50;99.90;;;;;;5145842;27;20379;-66
2023/07/09 02:07:13;;;;;;;0.38;0.38;;;23.40;99.90;;;;;;5130320;27;20038;-66
2023/07/09 02:09:39;;;;;;;0.40;0.38;;;23.40;99.90;;;;;;5153572;27;20086;-66
2023/07/09 02:12:05;;;;;;;0.35;0.35;;;23.40;99.90;;;;;;5153222;27;20039;-66
2023/07/09 02:14:31;;;;;;;1.75;0.73;;;23.40;99.90;;;;;;5145662;27;20603;-66
2023/07/09 02:16:56;;;;;;;0.38;0.28;;;23.40;99.90;;;;;;5148120;27;20035;-66
2023/07/09 02:19:22;;;;;;;0.25;0.17;;;23.30;99.90;;;;;;5146271;27;20070;-67
2023/07/09 02:21:48;;;;;;;0.20;0.10;;;23.30;99.90;;;;;;5146215;27;20669;-67
2023/07/09 02:24:13;;;;;;;0.38;0.38;;;23.20;99.90;;;;;;5146192;27;20074;-67
2023/07/09 02:26:39;;;;;;;1.17;0.73;;;23.20;99.90;;;;;;5151124;27;20371;-66
2023/07/09 02:29:04;;;;;;;0.63;0.63;;;23.20;99.90;;;;;;5152902;27;20041;-67
2023/07/09 02:31:30;;;;;;;0.45;0.43;;;23.10;99.90;;;;;;5146746;27;20035;-67
2023/07/09 02:33:56;;;;;;;1.50;0.73;;;23.10;99.90;;;;;;5144572;27;20043;-66
2023/07/09 02:36:24;;;;;;;1.65;0.47;;;23.10;99.90;;;;;;5150294;27;20039;-67
2023/07/09 02:38:50;;;;;;;3.15;0.73;;;23.10;99.90;;;;;;5143237;27;20043;-66
2023/07/09 02:41:16;;;;;;;0.45;0.45;;;23.00;99.90;;;;;;5151326;27;20053;-67
2023/07/09 02:43:41;;;;;;;0.28;0.28;;;23.00;99.90;;;;;;5149548;27;20474;-67
2023/07/09 02:46:07;;;;;;;2.00;0.75;;;23.00;99.90;;;;;;5145709;27;20175;-67
2023/07/09 02:48:33;;;;;;;0.17;0.17;;;23.00;99.90;;;;;;5131094;27;20050;-67
2023/07/09 02:50:58;;;;;;;1.10;1.00;;;23.00;99.90;;;;;;5146058;27;20045;-66
2023/07/09 02:53:24;;;;;;;0.40;0.40;;;23.00;99.90;;;;;;5151237;27;20049;-66
2023/07/09 02:55:49;;;;;;;2.42;0.45;;;22.90;99.90;;;;;;5145798;27;20066;-66
2023/07/09 02:58:15;;;;;;;0.68;0.55;;;22.90;99.90;;;;;;5144752;27;20034;-66
2023/07/09 03:00:40;;;;;;;3.83;0.47;;;22.80;99.90;;;;;;5141305;27;20034;-66
2023/07/09 03:03:06;;;;;;;7.65;1.65;;;22.90;99.90;;;;;;5144228;27;20046;-66
2023/07/09 03:05:33;;;;;;;0.20;0.20;;;22.90;99.90;;;;;;5142084;27;20389;-66
2023/07/09 03:07:59;;;;;;;0.32;0.30;;;22.80;99.90;;;;;;5139827;27;20042;-67
2023/07/09 03:10:24;;;;;;;0.47;0.40;;;22.70;99.90;;;;;;5145683;27;20030;-67
2023/07/09 03:12:50;;;;;;;0.50;0.47;;;22.80;99.90;;;;;;5144476;27;20039;-67
2023/07/09 03:15:15;;;;;;;0.77;0.77;;;22.70;99.90;;;;;;5151843;27;20081;-67
2023/07/09 03:17:41;;;;;;;0.25;0.25;;;22.80;99.90;;;;;;5143492;27;20111;-67
2023/07/09 03:20:07;;;;;;;3.97;1.42;;;22.70;99.90;;;;;;5151375;27;20039;-67
2023/07/09 03:22:33;;;;;;;1.65;1.08;;;22.70;99.90;;;;;;5147382;27;20644;-67
2023/07/09 03:24:59;;;;;;;0.20;0.20;;;22.60;99.90;;;;;;5145519;27;20091;-67
2023/07/09 03:27:24;;;;;;;0.10;0.10;;;22.70;99.90;;;;;;5139479;27;20050;-67
2023/07/09 03:29:50;;;;;;;6.22;0.30;;;22.70;99.90;;;;;;5150181;27;20061;-68
2023/07/09 03:32:16;;;;;;;0.10;0.10;;;22.60;99.90;;;;;;5150856;27;20133;-67
2023/07/09 03:34:41;;;;;;;0.65;0.65;;;22.60;99.90;;;;;;5143612;27;20517;-67
2023/07/09 03:37:07;;;;;;;0.73;0.35;;;22.60;99.90;;;;;;5146811;27;20057;-67
2023/07/09 03:39:32;;;;;;;2.15;0.60;;;22.50;99.90;;;;;;5144079;27;20185;-67
2023/07/09 03:41:58;;;;;;;1.25;0.38;;;22.60;99.90;;;;;;5149575;27;20039;-67
2023/07/09 03:44:25;;;;;;;0.00;0.00;;;22.60;99.90;;;;;;5136069;27;20039;-67
2023/07/09 03:46:50;;;;;;;0.43;0.43;;;22.60;99.90;;;;;;5143693;27;20135;-67
2023/07/09 03:49:16;;;;;;;0.20;0.20;;;22.60;99.90;;;;;;5143103;27;20109;-67
2023/07/09 03:51:42;;;;;;;0.43;0.43;;;22.60;99.90;;;;;;5152024;27;20050;-67
2023/07/09 03:54:07;;;;;;;0.40;0.40;;;22.50;99.90;;;;;;5143395;27;20043;-67
2023/07/09 03:56:33;;;;;;;0.77;0.57;;;22.60;99.90;;;;;;5150788;27;20496;-67
2023/07/09 03:58:58;;;;;;;1.80;1.52;;;22.60;99.90;;;;;;5145269;27;20155;-67
2023/07/09 04:01:24;;;;;;;8.30;1.20;;;22.60;99.90;;;;;;5142857;27;20038;-66
2023/07/09 04:03:50;;;;;;;0.70;0.65;;;22.60;99.90;;;;;;5132855;27;20091;-67
2023/07/09 04:06:15;;;;;;;0.00;0.00;;;22.60;99.90;;;;;;5142686;27;20405;-67
2023/07/09 04:08:41;;;;;;;0.60;0.60;;;22.60;99.90;;;;;;5151120;27;20034;-67
2023/07/09 04:11:07;;;;;;;2.45;0.68;;;22.60;99.90;;;;;;5145274;27;20112;-67
2023/07/09 04:13:32;;;;;;;0.63;0.35;;;22.60;99.90;;;;;;5148707;27;20043;-67
2023/07/09 04:15:58;;;;;;;1.17;0.63;;;22.60;99.90;;;;;;5139723;27;20027;-66
2023/07/09 04:18:24;;;;;;;0.20;0.10;;;22.60;99.90;;;;;;5148850;27;20084;-67
2023/07/09 04:20:50;;;;;;;0.52;0.40;;;22.60;99.90;;;;;;5140494;27;20038;-67
2023/07/09 04:23:16;;;;;;;0.88;0.43;;;22.60;99.90;;;;;;5147644;27;20049;-67
2023/07/09 04:25:42;;;;;;;0.47;0.47;;;22.60;99.90;;;;;;5146135;27;20035;-66
2023/07/09 04:28:07;;;;;;;4.95;1.13;;;22.70;99.90;;;;;;5143375;27;20043;-67
2023/07/09 04:30:33;;;;;;;0.32;0.32;;;22.70;99.90;;;;;;5151055;27;20452;-67
2023/07/09 04:32:59;;;;;;;0.25;0.25;;;22.70;99.90;;;;;;5143013;27;20497;-67
2023/07/09 04:35:24;;;;;;;0.00;0.00;;;22.70;99.90;;;;;;5141310;27;20046;-67
2023/07/09 04:37:50;;;;;;;0.28;0.28;;;22.70;99.90;;;;;;5132094;27;20776;-67
2023/07/09 04:40:18;;;;;;;0.10;0.10;;;22.70;99.90;;;;;;5150844;27;20116;-67
2023/07/09 04:42:43;;;;;;;0.45;0.45;;;22.70;99.90;;;;;;5143268;27;20187;-67
2023/07/09 04:45:11;;;;;;;1.73;0.80;;;22.70;99.90;;;;;;5145958;27;20452;-67
2023/07/09 04:47:38;;;;;;;1.40;1.13;;;22.70;99.90;;;;;;5144780;27;20115;-67
2023/07/09 04:50:05;;;;;;;0.17;0.17;;;22.60;99.90;;;;;;5146206;27;20121;-67
2023/07/09 04:52:30;;;;;;;2.47;0.70;;;22.70;99.90;;;;;;5150529;27;20482;-67
2023/07/09 04:54:56;;;;;;;0.43;0.43;;;22.70;99.90;;;;;;5144000;27;20041;-67
2023/07/09 04:57:22;;;;;;;3.58;1.25;;;22.70;99.90;;;;;;5146688;27;20043;-67
2023/07/09 04:59:49;;;;;;;0.38;0.25;;;22.70;99.90;;;;;;5149956;27;20038;-67
2023/07/09 05:02:14;;;;;;;0.15;0.15;;;22.70;99.90;;;;;;5137723;27;20057;-67
2023/07/09 05:04:40;;;;;;;0.63;0.63;;;22.70;99.90;;;;;;5143228;27;20030;-67
2023/07/09 05:07:06;;;;;;;1.33;1.23;;;22.70;99.90;;;;;;5138900;27;20389;-67
2023/07/09 05:09:32;;;;;;;0.50;0.50;;;22.60;99.90;;;;;;5126499;27;20414;-67
2023/07/09 05:11:59;;;;;;;0.22;0.22;;;22.70;99.90;;;;;;5144676;27;20470;-67
2023/07/09 05:14:29;;;;;;;1.38;0.43;;;22.80;99.90;;;;;;5141427;27;20039;-67
2023/07/09 05:16:55;;;;;;;0.38;0.38;;;22.80;99.90;;;;;;5150224;27;20022;-67
2023/07/09 05:19:20;;;;;;;0.45;0.45;;;22.80;99.90;;;;;;5117953;27;20116;-67
2023/07/09 05:21:46;;;;;;;0.20;0.20;;;22.70;99.90;;;;;;5120721;27;20371;-67
2023/07/09 05:24:11;;;;;;;0.57;0.57;;;22.80;99.90;;;;;;5149638;27;20049;-67
2023/07/09 05:26:37;;;;;;;0.20;0.20;;;22.80;99.90;;;;;;5135211;27;20047;-67
2023/07/09 05:29:05;;;;;;;0.90;0.73;;;22.80;99.90;;;;;;5133343;27;20046;-67
2023/07/09 05:31:32;;;;;;;0.15;0.15;;;22.80;99.90;;;;;;5139539;27;20121;-67
2023/07/09 05:33:59;;;;;;;0.35;0.30;;;22.80;99.90;;;;;;5145735;27;20139;-67
2023/07/09 05:36:26;;;;;;;0.10;0.10;;;22.80;99.90;;;;;;5144444;27;20131;-67
2023/07/09 05:38:52;;;;;;;1.42;0.98;;;22.80;99.90;;;;;;5141977;27;20091;-67
2023/07/09 05:41:18;;;;;;;0.00;0.00;;;22.90;99.90;;;;;;5149755;27;20050;-67
2023/07/09 05:43:44;;;;;;;0.60;0.60;;;22.90;99.90;;;;;;5150487;27;20371;-67
2023/07/09 05:46:14;;;;;;;0.28;0.28;;;22.90;99.90;;;;;;5136618;27;20525;-67
2023/07/09 05:48:40;;;;;;;0.80;0.70;;;22.90;99.90;;;;;;5140538;27;20053;-67
2023/07/09 05:51:05;;;;;;;0.90;0.50;;;23.00;99.90;;;;;;5143514;27;20031;-67
2023/07/09 05:53:34;;;;;;;0.65;0.65;;;23.00;99.90;;;;;;5126183;27;20082;-67
2023/07/09 05:56:00;;;;;;;0.05;0.05;;;22.90;99.90;;;;;;5140646;27;20038;-67
2023/07/09 05:58:26;;;;;;;0.10;0.10;;;23.00;99.90;;;;;;5147848;27;20043;-67
2023/07/09 06:00:57;;;;;;;5.07;0.80;;;23.10;99.90;;;;;;5143323;27;20031;-67
2023/07/09 06:03:24;;;;;;;0.68;0.52;;;23.10;99.90;;;;;;5131075;27;20043;-67
2023/07/09 06:05:51;;;;;;;8.90;0.80;;;23.20;99.90;;;;;;5149866;27;20030;-67
2023/07/09 06:08:18;;;;;;;0.20;0.20;;;23.20;99.90;;;;;;5148402;27;20055;-67
2023/07/09 06:11:10;;;;;;;1.50;1.15;;;23.20;99.90;;;;;;5143760;27;20505;-67
2023/07/09 06:13:35;;;;;;;0.32;0.32;;;23.30;99.90;;;;;;5145479;27;20059;-67
2023/07/09 06:16:01;;;;;;;0.15;0.15;;;23.30;99.90;;;;;;5127418;27;20118;-67
2023/07/09 06:18:30;;;;;;;0.32;0.32;;;23.30;99.90;;;;;;5148336;27;20387;-67
2023/07/09 06:20:58;;;;;;;0.77;0.77;;;23.40;99.90;;;;;;5136068;27;20047;-67
2023/07/09 06:23:24;;;;;;;3.83;0.28;;;23.40;99.90;;;;;;5138285;27;20142;-67
2023/07/09 06:25:51;;;;;;;0.60;0.50;;;23.40;99.90;;;;;;5130699;27;20118;-67
2023/07/09 06:28:19;;;;;;;1.08;0.75;;;23.40;99.90;;;;;;5148950;27;20553;-67
2023/07/09 06:30:45;;;;;;;1.02;0.98;;;23.50;99.90;;;;;;5138322;27;20050;-67
2023/07/09 06:33:12;;;;;;;1.85;1.02;;;23.60;99.90;;;;;;5144006;27;20062;-67
2023/07/09 06:35:39;;;;;;;0.40;0.40;;;23.60;99.90;;;;;;5138139;27;20039;-67
2023/07/09 06:38:05;;;;;;;3.33;2.08;;;23.70;99.90;;;;;;5142074;27;20046;-67
2023/07/09 06:40:31;;;;;;;0.17;0.17;;;23.80;99.90;;;;;;5152686;27;20179;-67
2023/07/09 06:42:57;;;;;;;1.08;0.88;;;23.90;99.90;;;;;;5140623;27;20125;-67
2023/07/09 06:45:24;;;;;;;0.10;0.10;;;24.00;99.90;;;;;;5147714;27;20035;-67
2023/07/09 06:47:49;;;;;;;0.63;0.63;;;24.00;99.90;;;;;;5152381;27;20620;-67
2023/07/09 06:50:15;;;;;;;1.40;1.02;;;24.00;99.90;;;;;;5143193;27;20131;-67
2023/07/09 06:52:41;;;;;;;0.40;0.40;;;24.10;99.90;;;;;;5147193;27;20042;-67
2023/07/09 06:55:07;;;;;;;0.60;0.50;;;24.10;99.90;;;;;;5150860;27;20031;-67
2023/07/09 06:57:33;;;;;;;1.00;0.45;;;24.10;99.90;;;;;;5144606;27;20502;-67
2023/07/09 06:59:59;;;;;;;0.93;0.90;;;24.10;99.90;;;;;;5152001;27;20059;-67
2023/07/09 07:02:24;;;;;;;1.00;0.73;;;24.10;99.90;;;;;;5152853;27;20745;-67
2023/07/09 07:04:50;;;;;;;0.68;0.45;;;24.10;99.90;;;;;;5134781;27;20127;-67
2023/07/09 07:07:16;;;;;;;1.33;1.23;;;24.10;99.90;;;;;;5147162;27;20109;-67
2023/07/09 07:09:41;;;;;;;3.60;0.65;;;24.10;99.90;;;;;;5141455;27;20041;-67
2023/07/09 07:12:07;;;;;;;0.70;0.70;;;24.30;99.90;;;;;;5152048;27;20050;-67
2023/07/09 07:14:33;;;;;;;0.32;0.25;;;24.30;99.90;;;;;;5125045;27;20054;-68
2023/07/09 07:16:59;;;;;;;0.22;0.22;;;24.30;99.90;;;;;;5147526;27;20386;-67
2023/07/09 07:19:24;;;;;;;0.15;0.10;;;24.40;99.90;;;;;;5151679;27;20046;-67
2023/07/09 07:21:50;;;;;;;3.65;0.77;;;24.50;99.90;;;;;;5142326;27;20034;-67
2023/07/09 07:24:15;;;;;;;0.20;0.20;;;24.50;99.90;;;;;;5141329;27;20047;-67
2023/07/09 07:26:41;;;;;;;0.98;0.90;;;24.70;99.90;;;;;;5139413;27;20096;-68
2023/07/09 07:29:06;;;;;;;0.40;0.40;;;24.70;99.90;;;;;;5117388;27;20490;-67
2023/07/09 07:31:32;;;;;;;0.57;0.40;;;24.90;99.90;;;;;;5131363;27;20043;-67
2023/07/09 07:33:58;;;;;;;0.60;0.57;;;25.00;99.90;;;;;;5140484;27;20053;-68
2023/07/09 07:36:23;;;;;;;1.88;1.50;;;25.00;99.90;;;;;;5134666;27;20047;-68
2023/07/09 07:38:49;;;;;;;9.52;2.38;;;25.00;99.90;;;;;;5136834;27;20053;-68
2023/07/09 07:41:14;;;;;;;0.88;0.70;;;25.00;99.90;;;;;;5148286;27;20081;-68
2023/07/09 07:43:40;;;;;;;1.95;0.30;;;25.00;99.90;;;;;;5119172;27;20043;-68
2023/07/09 07:46:07;;;;;;;0.20;0.20;;;25.00;99.90;;;;;;5148191;27;20078;-67
2023/07/09 07:48:32;;;;;;;0.00;0.00;;;25.10;99.90;;;;;;5143291;27;20083;-67
2023/07/09 07:51:01;;;;;;;0.00;0.00;;;25.00;99.90;;;;;;5148853;27;20035;-67
2023/07/09 07:53:29;;;;;;;0.32;0.32;;;25.00;99.90;;;;;;5143837;27;20046;-67
2023/07/09 07:55:56;;;;;;;1.45;0.40;;;25.00;99.90;;;;;;5140664;27;20074;-67
2023/07/09 07:58:21;;;;;;;0.20;0.20;;;25.00;99.90;;;;;;5146398;27;20381;-67
2023/07/09 08:00:47;;;;;;;0.13;0.13;;;25.10;99.90;;;;;;5150254;27;20126;-67
2023/07/09 08:03:13;;;;;;;0.88;0.88;;;25.20;99.90;;;;;;5129033;27;20363;-67
2023/07/09 08:05:39;;;;;;;0.13;0.13;;;25.20;99.90;;;;;;5143947;27;20082;-67
2023/07/09 08:08:04;;;;;;;2.42;0.75;;;25.20;99.90;;;;;;5150897;27;20043;-67
2023/07/09 08:10:30;;;;;;;0.35;0.28;;;25.20;99.90;;;;;;5151709;27;20070;-67
2023/07/09 08:12:57;;;;;;;0.00;0.00;;;25.30;99.90;;;;;;5142480;27;20039;-68
2023/07/09 08:15:24;;;;;;;0.55;0.55;;;25.20;99.90;;;;;;5146326;27;20408;-67
2023/07/09 08:17:50;;;;;;;0.63;0.52;;;25.20;99.90;;;;;;5150561;27;20035;-67
2023/07/09 08:20:15;;;;;;;2.28;0.30;;;25.20;99.90;;;;;;5142322;27;20050;-67
2023/07/09 08:22:41;;;;;;;0.50;0.20;;;25.20;99.90;;;;;;5148872;27;20098;-67
2023/07/09 08:25:07;;;;;;;0.20;0.20;;;25.10;99.90;;;;;;5140157;27;20031;-67
2023/07/09 08:27:32;;;;;;;0.10;0.10;;;25.10;99.90;;;;;;5148756;27;20398;-68
2023/07/09 08:29:58;;;;;;;0.03;0.03;;;25.20;99.90;;;;;;5139940;27;20035;-67
2023/07/09 08:32:24;;;;;;;0.28;0.10;;;25.20;99.90;;;;;;5150039;27;20054;-67
2023/07/09 08:34:49;;;;;;;0.00;0.00;;;25.20;99.90;;;;;;5144883;27;20520;-67
2023/07/09 08:37:15;;;;;;;1.30;1.10;;;25.30;99.90;;;;;;5147503;27;20513;-68
2023/07/09 08:39:40;;;;;;;0.00;0.00;;;25.40;99.90;;;;;;5137361;27;20057;-68
2023/07/09 08:42:20;;;;;;;0.40;0.40;;;25.50;99.90;;;;;;5143376;27;20113;-67
2023/07/09 08:45:20;;;;;;;0.00;0.00;;;25.60;99.90;;;;;;5150089;27;20049;-67
2023/07/09 08:48:03;;;;;;;0.00;0.00;;;25.60;99.90;;;;;;5147142;27;20564;-67
2023/07/09 08:50:47;;;;;;;0.10;0.10;;;25.70;99.90;;;;;;5124352;27;20123;-67
2023/07/09 08:53:36;;;;;;;0.00;0.00;;;25.60;99.90;;;;;;5152548;27;20050;-67
2023/07/09 08:56:02;;;;;;;0.00;0.00;;;25.70;99.90;;;;;;5121814;27;20430;-68
2023/07/09 08:58:30;;;;;;;0.00;0.00;;;25.70;99.90;;;;;;5144007;27;20039;-67
2023/07/09 09:01:06;;;;;;;0.15;0.13;;;25.70;99.90;;;;;;5143090;27;20554;-68
2023/07/09 09:03:38;;;;;;;0.17;0.17;;;25.80;99.90;;;;;;5139150;27;20363;-67
2023/07/09 09:06:14;;;;;;;0.10;0.10;;;25.90;99.90;;;;;;5150966;27;20500;-68
2023/07/09 09:08:59;;;;;;;0.20;0.20;;;25.90;99.90;;;;;;5144551;27;20110;-67
2023/07/09 09:11:57;;;;;;;0.47;0.47;;;25.90;99.90;;;;;;5144107;27;20047;-68
2023/07/09 09:14:33;;;;;;;0.22;0.17;;;25.90;99.90;;;;;;5124636;27;20107;-68
2023/07/09 09:17:01;;;;;;;0.10;0.10;;;26.00;99.90;;;;;;5118575;27;20046;-68
2023/07/09 09:19:38;;;;;;;1.35;0.93;;;26.10;99.90;;;;;;5142665;27;20053;-67
2023/07/09 09:22:18;;;;;;;0.00;0.00;;;26.10;99.90;;;;;;5147351;27;20342;-67
2023/07/09 09:25:14;;;;;;;0.35;0.22;;;26.10;99.90;;;;;;5141497;27;20038;-67
2023/07/09 09:27:40;;;;;;;17.75;1.35;;;26.10;99.90;;;;;;5149309;27;20606;-67
2023/07/09 09:30:14;;;;;;;0.10;0.10;;;26.20;99.90;;;;;;5142917;27;20162;-67
2023/07/09 09:32:46;;;;;;;0.77;0.63;;;26.30;99.90;;;;;;5144610;27;20506;-67
2023/07/09 09:35:15;;;;;;;0.00;0.00;;;26.40;99.90;;;;;;5132186;27;20039;-67
2023/07/09 09:37:49;;;;;;;2.92;0.40;;;26.60;99.90;;;;;;5151089;27;20047;-67
2023/07/09 09:40:18;;;;;;;0.00;0.00;;;26.70;99.90;;;;;;5142971;27;20125;-67
2023/07/09 09:42:44;;;;;;;0.63;0.63;;;26.70;99.90;;;;;;5151645;27;20629;-67
2023/07/09 09:45:16;;;;;;;0.20;0.17;;;26.80;99.90;;;;;;5151139;27;20052;-67
2023/07/09 09:47:43;;;;;;;0.03;0.03;;;26.90;99.90;;;;;;5140748;27;20388;-67
2023/07/09 09:50:17;;;;;;;0.00;0.00;;;27.30;99.90;;;;;;5145288;27;20533;-67
2023/07/09 09:52:43;;;;;;;0.05;0.05;;;27.60;99.90;;;;;;5129050;27;20045;-67
2023/07/09 09:55:22;;;;;;;0.30;0.30;;;28.00;99.90;;;;;;5146945;27;20034;-67
2023/07/09 09:57:50;;;;;;;1.38;0.45;;;28.20;99.90;;;;;;5148163;27;20481;-67
2023/07/09 10:00:17;;;;;;;0.45;0.30;;;28.40;99.90;;;;;;5129146;27;20039;-67
2023/07/09 10:02:45;;;;;;;0.15;0.10;;;28.50;99.90;;;;;;5149705;27;20072;-67
2023/07/09 10:05:15;;;;;;;0.00;0.00;;;28.50;99.90;;;;;;5142835;27;20065;-67
2023/07/09 10:07:56;;;;;;;0.00;0.00;;;28.70;99.90;;;;;;5146091;27;20039;-67
2023/07/09 10:10:27;;;;;;;0.22;0.22;;;28.80;99.90;;;;;;5142948;27;20043;-67
2023/07/09 10:13:17;;;;;;;0.17;0.15;;;28.60;99.90;;;;;;5140264;27;20074;-68
2023/07/09 10:16:29;;;;;;;0.10;0.10;;;28.70;99.90;;;;;;5130214;27;20528;-67
2023/07/09 10:19:23;;;;;;;0.00;0.00;;;28.80;99.90;;;;;;5065270;28;20048;-68
2023/07/09 10:22:05;;;;;;;0.20;0.20;;;29.00;99.90;;;;;;5051576;28;20147;-68
2023/07/09 10:25:01;;;;;;;0.52;0.52;;;29.10;99.10;;;;;;5131809;27;20054;-67
2023/07/09 10:27:29;;;;;;;0.35;0.35;;;29.20;99.30;;;;;;5132994;27;20059;-67
2023/07/09 10:30:26;;;;;;;0.00;0.00;;;29.40;99.30;;;;;;5131037;27;20056;-67
2023/07/09 10:33:12;;;;;;;0.00;0.00;;;29.40;98.50;;;;;;5152097;27;20054;-67
2023/07/09 10:35:59;;;;;;;0.13;0.10;;;29.60;99.10;;;;;;5133254;27;20078;-67
2023/07/09 10:38:42;;;;;;;0.00;0.00;;;29.50;99.20;;;;;;5145778;27;20042;-67
2023/07/09 10:41:12;;;;;;;0.13;0.10;;;29.50;98.40;;;;;;5125934;27;20051;-67
2023/07/09 10:43:44;;;;;;;0.30;0.28;;;29.70;98.80;;;;;;5136237;27;20043;-67
2023/07/09 10:46:24;;;;;;;0.13;0.03;;;29.60;98.60;;;;;;5145915;27;20074;-67
2023/07/09 10:48:52;;;;;;;0.20;0.20;;;29.60;98.40;;;;;;5152459;27;20123;-68
2023/07/09 10:51:32;;;;;;;0.00;0.00;;;29.70;98.60;;;;;;5143976;27;20045;-68
2023/07/09 10:54:12;;;;;;;0.50;0.35;;;29.80;97.80;;;;;;5152360;27;20047;-67
2023/07/09 10:56:39;;;;;;;0.00;0.00;;;29.70;98.00;;;;;;5149750;27;20069;-68
2023/07/09 10:59:35;;;;;;;0.00;0.00;;;29.80;98.40;;;;;;5143370;27;20039;-68
2023/07/09 11:02:23;;;;;;;0.52;0.20;;;29.90;98.60;;;;;;5120039;27;20081;-68
2023/07/09 11:04:54;;;;;;;0.25;0.20;;;29.90;98.40;;;;;;5146460;27;20418;-67
2023/07/09 11:07:45;;;;;;;1.08;0.10;;;30.00;98.80;;;;;;5146638;27;20559;-68
2023/07/09 11:10:26;;;;;;;0.95;0.43;;;30.10;98.40;;;;;;5140761;27;20099;-67
2023/07/09 11:13:09;;;;;;;0.40;0.40;;;30.10;97.90;;;;;;5131094;27;20049;-67
2023/07/09 11:15:40;;;;;;;0.00;0.00;;;30.20;98.80;;;;;;5148662;27;20099;-67
2023/07/09 11:18:10;;;;;;;0.10;0.10;;;30.20;98.00;;;;;;5154640;27;20038;-67
2023/07/09 11:20:42;;;;;;;0.25;0.25;;;30.40;98.50;;;;;;5149805;27;20093;-67
2023/07/09 11:23:24;;;;;;;0.15;0.15;;;30.40;98.40;;;;;;5147249;27;20517;-67
2023/07/09 11:26:03;;;;;;;5.63;1.85;;;30.70;98.20;;;;;;5141726;27;20084;-67
2023/07/09 11:28:37;;;;;;;0.00;0.00;;;30.70;98.30;;;;;;5129943;27;20403;-67
2023/07/09 11:31:16;;;;;;;0.10;0.00;;;30.70;98.20;;;;;;5129301;27;20050;-67
2023/07/09 11:33:48;;;;;;;0.15;0.13;;;30.80;98.40;;;;;;5127593;27;20043;-68
2023/07/09 11:36:24;;;;;;;0.20;0.20;;;30.80;97.60;;;;;;5146947;27;20047;-67
2023/07/09 11:38:50;;;;;;;0.00;0.00;;;30.80;98.10;;;;;;5144812;27;20027;-68
2023/07/09 11:41:24;;;;;;;0.00;0.00;;;31.00;97.70;;;;;;5148946;27;20046;-67
2023/07/09 11:43:50;;;;;;;0.55;0.35;;;31.00;97.10;;;;;;5150588;27;20039;-67
2023/07/09 11:46:23;;;;;;;0.17;0.17;;;31.10;97.40;;;;;;5125773;27;20435;-68
2023/07/09 11:48:50;;;;;;;0.00;0.00;;;31.30;96.80;;;;;;5142508;27;20039;-67
2023/07/09 11:51:20;;;;;;;0.20;0.17;;;31.10;97.10;;;;;;5151659;27;20038;-67
2023/07/09 11:53:55;;;;;;;0.10;0.10;;;31.20;97.90;;;;;;5148978;27;20046;-67
2023/07/09 11:56:23;;;;;;;0.00;0.00;;;31.20;97.70;;;;;;5141440;27;20080;-67
2023/07/09 11:58:50;;;;;;;0.10;0.10;;;31.20;97.00;;;;;;5124841;27;20092;-67
2023/07/09 12:01:19;;;;;;;0.10;0.10;;;31.20;97.10;;;;;;5139866;27;20084;-67
2023/07/09 12:03:46;;;;;;;0.38;0.32;;;31.50;96.90;;;;;;5130388;27;20139;-67
2023/07/09 12:06:21;;;;;;;0.22;0.20;;;31.50;97.10;;;;;;5151743;27;20039;-67
2023/07/09 12:08:49;;;;;;;0.20;0.13;;;31.50;96.60;;;;;;5151566;27;20049;-67
2023/07/09 12:11:34;;;;;;;3.55;0.98;;;31.30;96.80;;;;;;5141593;27;20043;-67
2023/07/09 12:14:08;;;;;;;0.10;0.10;;;31.10;97.20;;;;;;5151143;27;20043;-67
2023/07/09 12:16:38;;;;;;;0.10;0.10;;;30.90;96.80;;;;;;5143578;27;20045;-67
2023/07/09 12:19:03;;;;;;;0.10;0.10;;;30.80;96.60;;;;;;5147522;27;20043;-67
2023/07/09 12:21:31;;;;;;;0.28;0.28;;;30.70;96.80;;;;;;5144392;27;20043;-67
2023/07/09 12:23:57;;;;;;;0.20;0.20;;;31.00;97.10;;;;;;5147168;27;20217;-67
2023/07/09 12:26:23;;;;;;;0.08;0.08;;;31.20;97.30;;;;;;5138639;27;20479;-67
2023/07/09 12:28:53;;;;;;;0.03;0.03;;;30.90;96.30;;;;;;5146729;27;20041;-67
2023/07/09 12:31:30;;;;;;;3.05;1.83;;;31.00;97.50;;;;;;5148935;27;20046;-67
2023/07/09 12:33:58;;;;;;;0.35;0.35;;;30.80;97.40;;;;;;5146727;27;20082;-67
2023/07/09 12:36:25;;;;;;;0.43;0.10;;;30.80;97.20;;;;;;5141031;27;20047;-67
2023/07/09 12:38:55;;;;;;;4.95;0.28;;;30.90;97.70;;;;;;5143461;27;20059;-68
2023/07/09 12:41:26;;;;;;;0.00;0.00;;;30.50;96.30;;;;;;5138753;27;20043;-67
2023/07/09 12:43:53;;;;;;;0.20;0.20;;;30.30;96.70;;;;;;5150786;27;20058;-68
2023/07/09 12:46:21;;;;;;;0.52;0.22;;;30.10;97.30;;;;;;5141136;27;20081;-67
2023/07/09 12:48:47;;;;;;;1.00;0.52;;;30.00;95.90;;;;;;5131525;27;20043;-68
2023/07/09 12:51:19;;;;;;;0.28;0.28;;;29.90;96.50;;;;;;5138926;27;20608;-67
2023/07/09 12:53:44;;;;;;;0.00;0.00;;;29.90;96.70;;;;;;5147434;27;20065;-67
2023/07/09 12:56:13;;;;;;;0.00;0.00;;;29.70;97.20;;;;;;5124607;27;20054;-68
2023/07/09 12:58:39;;;;;;;0.05;0.05;;;29.60;96.70;;;;;;5145260;27;20447;-67
2023/07/09 13:01:07;;;;;;;0.10;0.10;;;29.40;96.90;;;;;;5149170;27;20042;-67